Time;durP1;ratioP1;P1;durP2;ratioP2;P2;SDS_P1;SDS_P2;PMS_P1;PMS_P2;Temp;Humidity;BMP_temperature;BMP_pressure;BME280_temperature;BME280_humidity;BME280_pressure;Samples;Min_cycle;Max_cycle;Signal;HPM_P1;HPM_P2
2024/01/14 00:00:34;;;;;;;1.60;1.20;;;;;;;12.56;47.24;96958.13;105487;1259;61180;-39
2024/01/14 00:03:01;;;;;;;1.40;1.30;;;;;;;12.56;47.09;96957.85;105679;1254;61295;-39
2024/01/14 00:05:28;;;;;;;1.60;1.20;;;;;;;12.56;47.22;96954.86;105613;1257;74436;-39
2024/01/14 00:07:56;;;;;;;1.40;1.20;;;;;;;12.56;47.15;96950.77;105704;1254;66086;-40
2024/01/14 00:10:23;;;;;;;1.70;1.20;;;;;;;12.56;47.12;96948.31;105540;1258;72592;-39
2024/01/14 00:12:50;;;;;;;1.40;1.20;;;;;;;12.56;47.11;96941.88;105378;1259;61222;-40
2024/01/14 00:15:18;;;;;;;1.50;1.30;;;;;;;12.56;47.21;96943.95;105415;1257;61343;-40
2024/01/14 00:17:45;;;;;;;1.80;1.50;;;;;;;12.56;47.27;96945.71;105569;1254;74408;-39
2024/01/14 00:20:12;;;;;;;1.50;1.40;;;;;;;12.56;47.16;96950.08;105624;1258;66243;-40
2024/01/14 00:22:39;;;;;;;1.60;1.20;;;;;;;12.56;47.22;96942.02;105637;1256;72296;-40
2024/01/14 00:25:06;;;;;;;1.30;1.20;;;;;;;12.56;47.05;96942.11;105525;1254;61173;-40
2024/01/14 00:27:33;;;;;;;1.40;1.20;;;;;;;12.56;47.11;96936.65;105575;1254;61314;-40
2024/01/14 00:30:00;;;;;;;1.70;1.40;;;;;;;12.56;47.17;96935.27;105507;1254;74403;-40
2024/01/14 00:32:27;;;;;;;1.40;1.30;;;;;;;12.56;47.16;96934.50;105637;1259;66074;-40
2024/01/14 00:34:53;;;;;;;1.50;1.40;;;;;;;12.56;47.09;96926.37;105671;1254;72597;-40
2024/01/14 00:37:20;;;;;;;2.00;1.30;;;;;;;12.56;47.08;96920.30;105487;1259;61241;-40
2024/01/14 00:39:47;;;;;;;1.60;1.40;;;;;;;12.56;47.10;96919.30;105639;1254;61366;-40
2024/01/14 00:42:13;;;;;;;1.60;1.50;;;;;;;12.56;47.07;96916.77;105641;1254;74424;-40
2024/01/14 00:44:43;;;;;;;1.70;1.60;;;;;;;12.56;47.14;96914.25;105476;1259;66164;-39
2024/01/14 00:47:09;;;;;;;1.50;1.40;;;;;;;12.56;47.13;96914.16;105397;1254;72589;-40
2024/01/14 00:49:36;;;;;;;1.90;1.50;;;;;;;12.56;47.18;96911.77;105507;1258;61341;-40
2024/01/14 00:52:04;;;;;;;1.50;1.40;;;;;;;12.56;47.15;96909.48;105527;1261;61797;-40
2024/01/14 00:54:31;;;;;;;1.80;1.20;;;;;;;12.56;47.01;96908.41;105418;1258;74638;-41
2024/01/14 00:56:57;;;;;;;1.50;1.40;;;;;;;12.56;47.11;96904.57;105525;1259;65751;-40
2024/01/14 00:59:24;;;;;;;1.50;1.30;;;;;;;12.56;47.10;96908.17;105468;1254;72413;-40
2024/01/14 01:01:50;;;;;;;1.40;1.30;;;;;;;12.56;47.14;96908.88;105826;1261;61242;-40
2024/01/14 01:04:17;;;;;;;1.40;1.30;;;;;;;12.56;47.18;96902.52;105463;1254;61365;-40
2024/01/14 01:06:44;;;;;;;1.30;1.20;;;;;;;12.56;47.22;96898.50;105817;1254;73598;-40
2024/01/14 01:09:11;;;;;;;2.20;1.40;;;;;;;12.56;47.13;96889.60;105571;1258;66083;-41
2024/01/14 01:11:38;;;;;;;1.40;1.20;;;;;;;12.56;47.15;96888.71;106126;1255;73045;-40
2024/01/14 01:14:04;;;;;;;1.50;1.30;;;;;;;12.57;47.14;96884.80;105502;1255;61267;-39
2024/01/14 01:16:31;;;;;;;1.40;1.30;;;;;;;12.56;47.18;96878.25;105488;1254;158285;-41
2024/01/14 01:18:58;;;;;;;2.20;1.40;;;;;;;12.56;47.09;96878.88;105528;1259;74613;-39
2024/01/14 01:21:25;;;;;;;1.50;1.10;;;;;;;12.57;47.30;96873.52;105604;1255;65494;-39
2024/01/14 01:23:52;;;;;;;1.50;1.30;;;;;;;12.57;47.05;96873.66;105504;1254;72477;-40
2024/01/14 01:26:18;;;;;;;1.20;1.00;;;;;;;12.56;47.25;96869.88;105442;1259;61164;-41
2024/01/14 01:28:45;;;;;;;1.30;1.20;;;;;;;12.56;47.19;96868.14;105325;1254;61375;-40
2024/01/14 01:31:12;;;;;;;1.30;1.20;;;;;;;12.57;47.17;96854.88;105499;1254;74367;-40
2024/01/14 01:33:39;;;;;;;1.60;1.30;;;;;;;12.56;47.18;96856.16;105527;1259;67250;-40
2024/01/14 01:36:06;;;;;;;1.50;1.40;;;;;;;12.57;47.22;96853.10;105639;1254;71313;-40
2024/01/14 01:38:33;;;;;;;1.70;1.30;;;;;;;12.56;47.12;96847.95;105488;1258;61315;-40
2024/01/14 01:40:59;;;;;;;1.50;1.30;;;;;;;12.56;47.15;96846.56;105634;1259;61338;-40
2024/01/14 01:43:26;;;;;;;1.80;1.40;;;;;;;12.56;47.16;96843.05;105559;1254;74280;-40
2024/01/14 01:45:54;;;;;;;1.80;1.50;;;;;;;12.55;47.21;96839.88;105519;1258;66678;-40
2024/01/14 01:48:21;;;;;;;1.50;1.40;;;;;;;12.56;47.14;96840.65;105622;1254;72325;-39
2024/01/14 01:50:49;;;;;;;1.60;1.30;;;;;;;12.56;47.18;96838.58;105528;1259;61235;-40
2024/01/14 01:53:16;;;;;;;1.50;1.40;;;;;;;12.56;47.05;96834.04;105269;1254;61383;-39
2024/01/14 01:55:43;;;;;;;1.80;1.60;;;;;;;12.56;47.15;96830.74;105632;1258;74377;-39
2024/01/14 01:58:10;;;;;;;1.40;1.30;;;;;;;12.56;47.17;96827.00;105571;1261;66040;-40
2024/01/14 02:00:38;;;;;;;1.30;1.20;;;;;;;12.56;47.15;96827.21;105570;1254;72730;-39
2024/01/14 02:03:05;;;;;;;1.70;1.40;;;;;;;12.56;47.19;96819.39;105688;1259;61267;-39
2024/01/14 02:05:32;;;;;;;1.60;1.40;;;;;;;12.56;47.10;96818.70;105663;1254;61232;-41
2024/01/14 02:07:59;;;;;;;2.10;1.40;;;;;;;12.56;47.11;96814.70;105605;1262;74410;-40
2024/01/14 02:10:25;;;;;;;2.10;1.30;;;;;;;12.56;47.15;96812.25;105660;1258;65295;-39
2024/01/14 02:12:52;;;;;;;2.00;1.50;;;;;;;12.56;47.27;96810.02;105466;1260;72469;-39
2024/01/14 02:15:18;;;;;;;2.30;1.50;;;;;;;12.56;47.26;96808.35;105479;1258;63061;-39
2024/01/14 02:17:45;;;;;;;1.40;1.30;;;;;;;12.57;47.25;96804.22;105634;1254;61276;-39
2024/01/14 02:20:14;;;;;;;1.50;1.40;;;;;;;12.56;47.29;96798.91;105659;1254;74418;-39
2024/01/14 02:22:41;;;;;;;1.80;1.40;;;;;;;12.56;47.30;96794.29;105585;1258;65804;-40
2024/01/14 02:25:08;;;;;;;2.10;1.70;;;;;;;12.56;47.08;96787.69;105529;1254;73656;-39
2024/01/14 02:27:35;;;;;;;1.90;1.40;;;;;;;12.56;47.18;96785.55;105500;1258;61232;-41
2024/01/14 02:30:03;;;;;;;1.60;1.20;;;;;;;12.56;47.26;96783.77;105215;1254;61250;-41
2024/01/14 02:32:30;;;;;;;1.60;1.50;;;;;;;12.56;47.04;96782.16;105472;1255;74580;-41
2024/01/14 02:34:58;;;;;;;1.50;1.40;;;;;;;12.56;47.11;96780.64;105422;1259;65919;-41
2024/01/14 02:37:24;;;;;;;1.60;1.40;;;;;;;12.56;47.18;96777.70;105413;1254;72610;-41
2024/01/14 02:39:51;;;;;;;1.40;1.30;;;;;;;12.56;47.26;96775.66;105332;1259;61247;-39
2024/01/14 02:42:18;;;;;;;1.40;1.20;;;;;;;12.56;47.20;96771.04;105442;1256;61250;-40
2024/01/14 02:44:44;;;;;;;1.90;1.40;;;;;;;12.56;47.26;96769.49;105386;1258;74326;-40
2024/01/14 02:47:11;;;;;;;1.50;1.40;;;;;;;12.56;47.19;96767.83;105543;1254;64838;-39
2024/01/14 02:49:37;;;;;;;1.60;1.50;;;;;;;12.55;47.09;96764.30;105463;1254;71685;-39
2024/01/14 02:52:04;;;;;;;1.70;1.40;;;;;;;12.56;47.23;96759.16;105634;1258;61367;-39
2024/01/14 02:54:30;;;;;;;1.40;1.30;;;;;;;12.56;47.24;96755.40;105562;1254;61231;-40
2024/01/14 02:56:57;;;;;;;1.60;1.20;;;;;;;12.56;47.09;96748.41;105524;1257;74429;-40
2024/01/14 02:59:26;;;;;;;1.40;1.30;;;;;;;12.56;47.26;96746.48;105668;1256;66129;-40
2024/01/14 03:01:53;;;;;;;1.60;1.20;;;;;;;12.56;47.12;96745.56;105806;1255;72713;-40
2024/01/14 03:04:19;;;;;;;2.10;1.50;;;;;;;12.55;47.29;96741.95;105655;1258;61285;-39
2024/01/14 03:06:46;;;;;;;1.60;1.40;;;;;;;12.56;47.14;96738.13;106021;1255;61343;-39
2024/01/14 03:09:13;;;;;;;1.40;1.30;;;;;;;12.56;47.11;96737.27;105648;1254;74498;-39
2024/01/14 03:11:39;;;;;;;1.60;1.50;;;;;;;12.56;47.25;96737.58;106164;1254;65916;-39
2024/01/14 03:14:06;;;;;;;1.60;1.40;;;;;;;12.56;47.01;96730.38;105672;1259;72637;-39
2024/01/14 03:16:32;;;;;;;1.60;1.50;;;;;;;12.56;47.11;96726.98;105506;1256;61229;-39
2024/01/14 03:18:59;;;;;;;2.00;1.50;;;;;;;12.56;47.20;96722.33;105602;1254;61270;-40
2024/01/14 03:21:26;;;;;;;1.40;1.30;;;;;;;12.56;47.17;96722.00;105640;1254;74368;-40
2024/01/14 03:23:53;;;;;;;1.60;1.50;;;;;;;12.56;47.19;96719.33;105684;1258;65948;-40
2024/01/14 03:26:20;;;;;;;1.80;1.60;;;;;;;12.56;47.17;96715.40;105609;1254;72326;-39
2024/01/14 03:28:46;;;;;;;1.80;1.40;;;;;;;12.56;47.28;96709.80;105731;1259;61243;-39
2024/01/14 03:31:14;;;;;;;1.60;1.50;;;;;;;12.56;47.16;96709.42;105508;1258;61272;-39
2024/01/14 03:33:44;;;;;;;2.00;1.30;;;;;;;12.56;47.21;96708.35;105543;1256;75417;-40
2024/01/14 03:36:15;;;;;;;1.70;1.50;;;;;;;12.55;47.19;96703.11;105181;1260;66278;-39
2024/01/14 03:38:42;;;;;;;1.50;1.40;;;;;;;12.56;47.13;96706.04;105375;1254;72410;-39
2024/01/14 03:41:09;;;;;;;1.40;1.30;;;;;;;12.56;47.21;96704.44;105368;1258;61236;-39
2024/01/14 03:43:35;;;;;;;1.70;1.50;;;;;;;12.56;47.28;96697.67;105723;1254;61507;-41
2024/01/14 03:46:02;;;;;;;1.70;1.40;;;;;;;12.56;47.12;96696.21;105552;1254;74622;-40
2024/01/14 03:48:29;;;;;;;1.50;1.30;;;;;;;12.56;47.24;96692.98;105591;1259;65954;-41
2024/01/14 03:50:56;;;;;;;1.60;1.50;;;;;;;12.56;47.17;96693.39;105529;1255;72595;-39
2024/01/14 03:53:22;;;;;;;1.70;1.60;;;;;;;12.56;47.34;96685.31;105712;1258;61334;-39
2024/01/14 03:55:49;;;;;;;2.60;1.50;;;;;;;12.56;47.22;96685.31;105558;1254;61332;-39
2024/01/14 03:58:15;;;;;;;1.80;1.50;;;;;;;12.56;47.24;96677.04;105623;1258;74349;-40
2024/01/14 04:00:42;;;;;;;1.30;1.20;;;;;;;12.56;47.23;96672.58;105621;1258;66181;-40
2024/01/14 04:03:09;;;;;;;2.20;1.40;;;;;;;12.56;47.22;96671.82;105665;1259;72592;-40
2024/01/14 04:05:36;;;;;;;1.80;1.50;;;;;;;12.56;47.28;96668.98;105638;1258;61261;-39
2024/01/14 04:08:03;;;;;;;1.40;1.30;;;;;;;12.56;47.22;96662.91;105539;1254;61239;-39
2024/01/14 04:10:29;;;;;;;1.50;1.40;;;;;;;12.56;47.18;96662.77;105551;1258;74444;-39
2024/01/14 04:12:56;;;;;;;1.70;1.40;;;;;;;12.56;47.30;96660.92;105426;1258;66069;-40
2024/01/14 04:15:24;;;;;;;1.40;1.30;;;;;;;12.56;47.28;96661.14;105326;1254;72297;-39
2024/01/14 04:17:50;;;;;;;1.70;1.30;;;;;;;12.56;47.25;96659.84;105499;1258;61816;-39
2024/01/14 04:20:17;;;;;;;1.70;1.50;;;;;;;12.56;47.17;96657.79;105410;1254;61309;-40
2024/01/14 04:22:44;;;;;;;1.40;1.30;;;;;;;12.56;47.14;96652.48;105493;1258;74472;-40
2024/01/14 04:25:10;;;;;;;1.40;1.30;;;;;;;12.56;47.16;96650.02;105481;1258;65950;-39
2024/01/14 04:27:37;;;;;;;1.70;1.50;;;;;;;12.56;47.15;96653.17;105384;1254;72388;-39
2024/01/14 04:30:06;;;;;;;1.50;1.40;;;;;;;12.56;47.29;96651.88;105445;1258;61254;-38
2024/01/14 04:32:33;;;;;;;1.50;1.40;;;;;;;12.56;47.36;96645.97;105635;1254;61260;-40
2024/01/14 04:35:00;;;;;;;1.30;1.20;;;;;;;12.56;47.12;96643.35;105517;1256;74579;-40
2024/01/14 04:37:27;;;;;;;1.80;1.50;;;;;;;12.56;47.33;96637.06;105576;1258;63982;-40
2024/01/14 04:39:55;;;;;;;1.80;1.60;;;;;;;12.56;47.20;96635.52;105381;1254;72318;-40
2024/01/14 04:42:23;;;;;;;1.80;1.50;;;;;;;12.57;47.15;96633.17;105422;1256;61259;-40
2024/01/14 04:44:50;;;;;;;1.90;1.40;;;;;;;12.56;47.17;96629.16;105639;1254;61321;-40
2024/01/14 04:47:16;;;;;;;1.50;1.40;;;;;;;12.56;47.10;96619.79;105474;1255;74433;-41
2024/01/14 04:49:43;;;;;;;1.80;1.40;;;;;;;12.56;47.36;96623.70;105411;1258;65020;-40
2024/01/14 04:52:10;;;;;;;1.70;1.40;;;;;;;12.56;47.28;96619.02;105596;1254;72912;-40
2024/01/14 04:54:36;;;;;;;1.60;1.50;;;;;;;12.56;47.35;96620.79;105574;1255;61251;-40
2024/01/14 04:57:03;;;;;;;1.80;1.50;;;;;;;12.56;47.25;96619.17;105677;1254;61412;-39
2024/01/14 04:59:30;;;;;;;1.50;1.40;;;;;;;12.56;47.19;96621.86;105672;1259;74496;-39
2024/01/14 05:01:57;;;;;;;1.70;1.60;;;;;;;12.56;47.34;96618.58;105550;1258;66090;-40
2024/01/14 05:04:23;;;;;;;1.70;1.50;;;;;;;12.56;47.23;96613.88;105572;1256;61379;-40
2024/01/14 05:06:50;;;;;;;1.70;1.40;;;;;;;12.56;47.17;96610.96;105528;1258;61255;-39
2024/01/14 05:09:17;;;;;;;1.40;1.20;;;;;;;12.56;47.17;96604.52;105457;1254;61330;-39
2024/01/14 05:11:44;;;;;;;1.50;1.40;;;;;;;12.56;47.13;96608.66;105833;1254;74461;-40
2024/01/14 05:14:11;;;;;;;1.70;1.40;;;;;;;12.56;47.24;96601.23;105440;1259;66881;-40
2024/01/14 05:16:37;;;;;;;1.40;1.30;;;;;;;12.56;47.32;96597.38;106137;1254;72427;-40
2024/01/14 05:19:04;;;;;;;1.40;1.30;;;;;;;12.56;47.16;96594.08;105541;1259;61224;-40
2024/01/14 05:21:31;;;;;;;1.90;1.50;;;;;;;12.56;47.30;96598.02;105622;1254;61334;-41
2024/01/14 05:23:58;;;;;;;1.70;1.50;;;;;;;12.56;47.26;96591.88;105576;1258;74996;-39
2024/01/14 05:26:24;;;;;;;2.00;1.80;;;;;;;12.56;47.23;96596.71;105619;1258;66127;-40
2024/01/14 05:28:51;;;;;;;2.00;1.60;;;;;;;12.56;47.24;96592.85;105473;1257;71524;-40
2024/01/14 05:31:18;;;;;;;2.10;1.50;;;;;;;12.56;47.41;96587.86;105365;1259;61228;-40
2024/01/14 05:33:45;;;;;;;1.70;1.30;;;;;;;12.57;47.22;96593.27;105534;1254;61194;-39
2024/01/14 05:36:11;;;;;;;1.50;1.40;;;;;;;12.56;47.23;96596.17;105497;1254;74573;-40
2024/01/14 05:38:38;;;;;;;1.30;1.20;;;;;;;12.56;47.19;96590.42;105561;1257;66107;-40
2024/01/14 05:41:05;;;;;;;1.40;1.30;;;;;;;12.57;47.29;96596.27;105662;1254;61259;-40
2024/01/14 05:43:31;;;;;;;1.60;1.50;;;;;;;12.56;47.12;96591.18;105575;1254;61355;-40
2024/01/14 05:45:58;;;;;;;1.40;1.30;;;;;;;12.56;47.23;96593.40;105351;1254;61332;-40
2024/01/14 05:48:24;;;;;;;1.60;1.50;;;;;;;12.57;47.15;96595.79;105603;1259;61396;-40
2024/01/14 05:50:51;;;;;;;1.50;1.30;;;;;;;12.56;47.24;96595.98;105648;1256;66385;-39
2024/01/14 05:53:18;;;;;;;1.50;1.30;;;;;;;12.56;47.16;96592.86;105651;1254;72371;-39
2024/01/14 05:55:45;;;;;;;1.50;1.40;;;;;;;12.56;47.27;96592.54;105610;1258;61231;-40
2024/01/14 05:58:12;;;;;;;1.60;1.50;;;;;;;12.56;47.18;96596.45;105691;1255;61360;-39
2024/01/14 06:00:39;;;;;;;1.50;1.40;;;;;;;12.56;47.18;96586.94;105524;1254;73583;-39
2024/01/14 06:03:06;;;;;;;1.90;1.40;;;;;;;12.56;47.18;96586.95;105458;1258;63853;-40
2024/01/14 06:05:33;;;;;;;2.30;1.50;;;;;;;12.56;47.26;96586.56;105596;1254;72701;-40
2024/01/14 06:08:00;;;;;;;1.70;1.60;;;;;;;12.56;47.19;96586.48;105469;1258;61360;-39
2024/01/14 06:10:27;;;;;;;1.70;1.40;;;;;;;12.56;47.25;96589.64;105577;1256;61326;-39
2024/01/14 06:12:53;;;;;;;1.60;1.30;;;;;;;12.56;47.24;96584.20;105523;1258;74640;-39
2024/01/14 06:15:20;;;;;;;1.50;1.40;;;;;;;12.56;47.21;96583.34;105349;1258;65797;-40
2024/01/14 06:17:46;;;;;;;1.50;1.40;;;;;;;12.56;47.29;96581.19;105618;1254;72400;-39
2024/01/14 06:20:13;;;;;;;2.10;1.40;;;;;;;12.56;47.25;96581.20;105562;1256;61221;-40
2024/01/14 06:22:40;;;;;;;1.70;1.50;;;;;;;12.56;47.17;96578.90;105588;1256;61795;-39
2024/01/14 06:25:07;;;;;;;2.30;1.30;;;;;;;12.56;47.29;96582.05;105558;1259;74598;-39
2024/01/14 06:27:34;;;;;;;1.50;1.40;;;;;;;12.56;47.31;96583.17;105521;1256;66356;-39
2024/01/14 06:30:02;;;;;;;2.80;1.60;;;;;;;12.55;47.24;96579.73;105640;1254;72584;-39
2024/01/14 06:32:31;;;;;;;2.00;1.50;;;;;;;12.55;47.26;96581.88;105482;1254;61354;-40
2024/01/14 06:34:58;;;;;;;1.60;1.50;;;;;;;12.56;47.29;96581.65;105592;1254;61268;-40
2024/01/14 06:37:25;;;;;;;1.60;1.40;;;;;;;12.56;47.30;96583.02;105495;1256;74641;-40
2024/01/14 06:39:51;;;;;;;1.90;1.50;;;;;;;12.56;47.30;96580.88;105648;1260;63864;-40
2024/01/14 06:42:18;;;;;;;1.50;1.40;;;;;;;12.56;47.37;96571.21;105529;1255;72701;-39
2024/01/14 06:44:44;;;;;;;1.70;1.60;;;;;;;12.56;47.28;96570.67;105582;1258;61244;-40
2024/01/14 06:47:11;;;;;;;2.10;1.50;;;;;;;12.57;47.27;96568.71;105410;1254;61267;-40
2024/01/14 06:49:38;;;;;;;1.40;1.30;;;;;;;12.56;47.25;96565.23;105409;1258;74430;-40
2024/01/14 06:52:05;;;;;;;1.50;1.40;;;;;;;12.56;47.31;96560.56;105181;1254;66047;-40
2024/01/14 06:54:32;;;;;;;1.90;1.50;;;;;;;12.57;47.22;96559.27;105350;1256;72626;-40
2024/01/14 06:56:58;;;;;;;1.60;1.40;;;;;;;12.56;47.34;96556.27;105503;1258;61240;-41
2024/01/14 06:59:25;;;;;;;1.60;1.40;;;;;;;12.57;47.28;96552.06;105634;1254;61315;-40
2024/01/14 07:01:51;;;;;;;1.60;1.40;;;;;;;12.56;47.34;96549.97;105894;1256;74586;-40
2024/01/14 07:04:18;;;;;;;1.40;1.30;;;;;;;12.57;47.26;96541.86;105701;1258;66139;-40
2024/01/14 07:06:45;;;;;;;1.70;1.60;;;;;;;12.57;47.28;96540.46;105435;1255;72349;-40
2024/01/14 07:09:13;;;;;;;1.80;1.50;;;;;;;12.57;47.33;96538.87;105538;1258;61259;-40
2024/01/14 07:11:40;;;;;;;1.50;1.30;;;;;;;12.57;47.13;96540.18;106001;1254;61270;-40
2024/01/14 07:14:06;;;;;;;1.40;1.30;;;;;;;12.58;47.21;96542.18;105620;1254;74921;-40
2024/01/14 07:16:33;;;;;;;1.60;1.40;;;;;;;12.58;47.34;96539.49;105545;1258;65897;-40
2024/01/14 07:18:59;;;;;;;1.70;1.30;;;;;;;12.58;47.14;96536.14;105635;1256;72440;-40
2024/01/14 07:21:27;;;;;;;1.40;1.30;;;;;;;12.59;47.40;96537.69;105642;1259;61239;-40
2024/01/14 07:23:54;;;;;;;1.60;1.30;;;;;;;12.59;47.37;96536.23;105586;1256;61231;-40
2024/01/14 07:26:21;;;;;;;1.60;1.50;;;;;;;12.59;47.17;96535.56;105586;1256;74435;-40
2024/01/14 07:28:52;;;;;;;2.30;1.60;;;;;;;12.59;47.30;96534.27;105602;1258;65128;-39
2024/01/14 07:31:21;;;;;;;2.00;1.40;;;;;;;12.60;47.18;96537.96;105671;1256;73046;-40
2024/01/14 07:33:49;;;;;;;1.40;1.30;;;;;;;12.60;47.26;96531.20;105657;1258;61307;-40
2024/01/14 07:36:16;;;;;;;1.30;1.20;;;;;;;12.61;47.32;96532.23;105655;1254;61320;-40
2024/01/14 07:38:42;;;;;;;1.40;1.30;;;;;;;12.61;47.37;96528.08;105677;1254;73678;-40
2024/01/14 07:41:13;;;;;;;2.50;1.40;;;;;;;12.61;47.32;96531.77;105520;1258;66635;-40
2024/01/14 07:43:40;;;;;;;1.80;1.60;;;;;;;12.61;47.27;96530.95;105411;1256;72692;-41
2024/01/14 07:46:07;;;;;;;1.40;1.30;;;;;;;12.62;47.21;96524.82;105523;1258;61219;-41
2024/01/14 07:48:34;;;;;;;1.70;1.30;;;;;;;12.62;47.25;96519.85;105679;1255;61254;-39
2024/01/14 07:51:01;;;;;;;1.70;1.30;;;;;;;12.62;47.29;96515.55;105563;1258;74455;-40
2024/01/14 07:53:29;;;;;;;1.60;1.40;;;;;;;12.63;47.19;96517.41;105523;1255;66247;-39
2024/01/14 07:55:55;;;;;;;1.70;1.50;;;;;;;12.63;47.24;96515.95;105547;1255;73131;-40
2024/01/14 07:58:22;;;;;;;1.80;1.50;;;;;;;12.63;47.19;96517.02;105568;1258;61221;-39
2024/01/14 08:00:48;;;;;;;1.90;1.50;;;;;;;12.63;47.16;96514.27;105636;1254;61372;-39
2024/01/14 08:03:27;;;;;;;2.10;1.50;;;;;;;12.63;47.29;96512.27;105651;1256;74624;-40
2024/01/14 08:05:54;;;;;;;1.70;1.50;;;;;;;12.63;47.26;96513.03;105465;1258;66136;-41
2024/01/14 08:08:21;;;;;;;1.70;1.50;;;;;;;12.63;47.16;96511.20;105444;1256;72489;-40
2024/01/14 08:10:48;;;;;;;1.60;1.40;;;;;;;12.63;47.24;96513.19;105465;1258;61241;-40
2024/01/14 08:13:15;;;;;;;1.80;1.50;;;;;;;12.64;47.31;96509.83;105683;1256;61383;-40
2024/01/14 08:15:42;;;;;;;1.30;1.20;;;;;;;12.64;47.21;96511.45;105702;1254;74585;-40
2024/01/14 08:18:26;;;;;;;1.40;1.30;;;;;;;12.64;47.14;96510.39;105592;1258;64948;-40
2024/01/14 08:20:53;;;;;;;1.70;1.30;;;;;;;12.65;47.24;96508.93;105383;1255;72521;-40
2024/01/14 08:23:20;;;;;;;1.70;1.60;;;;;;;12.65;47.26;96507.27;105525;1258;61236;-40
2024/01/14 08:25:46;;;;;;;1.50;1.40;;;;;;;12.65;47.10;96509.02;105353;1255;61199;-40
2024/01/14 08:28:13;;;;;;;1.40;1.30;;;;;;;12.65;47.09;96502.82;105562;1256;73550;-40
2024/01/14 08:30:40;;;;;;;1.90;1.50;;;;;;;12.66;47.26;96506.30;105677;1258;65048;-40
2024/01/14 08:33:07;;;;;;;1.60;1.20;;;;;;;12.66;47.10;96504.77;105462;1256;72582;-40
2024/01/14 08:35:34;;;;;;;1.40;1.30;;;;;;;12.67;47.18;96506.48;105548;1258;61353;-40
2024/01/14 08:38:01;;;;;;;1.30;1.20;;;;;;;12.67;47.24;96506.79;105597;1254;61365;-39
2024/01/14 08:40:28;;;;;;;1.40;1.30;;;;;;;12.67;47.12;96505.42;105619;1258;74599;-39
2024/01/14 08:42:55;;;;;;;1.70;1.60;;;;;;;12.68;47.23;96505.89;105626;1258;66296;-39
2024/01/14 08:45:22;;;;;;;1.30;1.20;;;;;;;12.68;47.21;96510.81;105622;1254;72425;-40
2024/01/14 08:47:48;;;;;;;1.90;1.50;;;;;;;12.69;47.20;96511.85;105601;1258;61200;-39
2024/01/14 08:50:15;;;;;;;1.60;1.50;;;;;;;12.68;47.19;96512.19;105678;1256;61280;-39
2024/01/14 08:52:42;;;;;;;1.70;1.60;;;;;;;12.69;47.22;96513.53;105545;1256;74579;-40
2024/01/14 08:55:09;;;;;;;1.80;1.50;;;;;;;12.70;47.20;96515.31;105398;1259;65295;-40
2024/01/14 08:57:36;;;;;;;2.10;1.40;;;;;;;12.69;47.15;96509.79;105407;1254;72396;-40
2024/01/14 09:00:04;;;;;;;1.50;1.20;;;;;;;12.69;47.18;96508.40;105553;1258;61266;-40
2024/01/14 09:02:31;;;;;;;1.50;1.40;;;;;;;12.70;47.21;96506.33;105670;1256;61360;-40
2024/01/14 09:04:58;;;;;;;2.50;1.50;;;;;;;12.70;47.19;96506.79;105444;1259;74401;-40
2024/01/14 09:07:25;;;;;;;1.30;1.20;;;;;;;12.70;47.13;96500.20;105531;1258;66144;-41
2024/01/14 09:09:52;;;;;;;1.30;1.20;;;;;;;12.70;47.20;96497.44;105612;1256;72574;-39
2024/01/14 09:12:18;;;;;;;1.50;1.30;;;;;;;12.70;47.14;96497.21;105522;1258;61320;-40
2024/01/14 09:14:45;;;;;;;1.50;1.40;;;;;;;12.70;47.16;96492.84;105474;1257;61239;-40
2024/01/14 09:17:11;;;;;;;1.50;1.20;;;;;;;12.71;47.23;96492.16;105450;1258;74538;-40
2024/01/14 09:19:38;;;;;;;1.50;1.40;;;;;;;12.70;47.08;96486.00;105324;1258;67518;-40
2024/01/14 09:22:05;;;;;;;1.70;1.40;;;;;;;12.70;47.00;96484.92;105430;1256;72488;-40
2024/01/14 09:24:32;;;;;;;1.90;1.30;;;;;;;12.70;47.27;96479.64;105503;1259;61175;-40
2024/01/14 09:26:59;;;;;;;1.50;1.40;;;;;;;12.70;47.21;96476.55;105459;1256;61279;-41
2024/01/14 09:29:25;;;;;;;1.40;1.30;;;;;;;12.71;47.13;96479.35;105646;1258;75354;-39
2024/01/14 09:31:52;;;;;;;1.40;1.30;;;;;;;12.71;47.17;96476.60;105418;1258;67291;-40
2024/01/14 09:34:19;;;;;;;1.50;1.40;;;;;;;12.71;47.16;96469.67;105511;1256;72610;-40
2024/01/14 09:36:45;;;;;;;2.20;1.30;;;;;;;12.71;47.15;96465.69;105818;1258;61357;-41
2024/01/14 09:39:13;;;;;;;1.30;1.20;;;;;;;12.71;47.08;96464.39;105566;1256;61375;-41
2024/01/14 09:41:44;;;;;;;1.50;1.40;;;;;;;12.72;47.19;96470.16;106038;1256;75014;-41
2024/01/14 09:44:15;;;;;;;2.40;1.50;;;;;;;12.72;47.19;96471.33;105809;1258;66183;-41
2024/01/14 09:46:42;;;;;;;1.40;1.30;;;;;;;12.73;47.08;96467.65;106129;1256;71452;-40
2024/01/14 09:49:10;;;;;;;1.40;1.30;;;;;;;12.73;47.06;96471.83;105605;1258;61173;-41
2024/01/14 09:51:40;;;;;;;1.70;1.40;;;;;;;12.74;47.13;96466.23;105359;1260;61360;-39
2024/01/14 09:54:07;;;;;;;1.20;1.10;;;;;;;12.73;47.09;96468.08;105362;1261;74263;-41
2024/01/14 09:56:34;;;;;;;1.70;1.40;;;;;;;12.74;47.14;96468.16;105642;1258;64486;-39
2024/01/14 09:59:01;;;;;;;1.40;1.30;;;;;;;12.74;47.08;96459.02;105469;1256;73793;-39
2024/01/14 10:01:31;;;;;;;1.60;1.20;;;;;;;12.74;47.26;96463.17;105606;1258;61268;-40
2024/01/14 10:04:00;;;;;;;1.40;1.30;;;;;;;12.74;47.10;96458.35;105525;1258;61118;-40
2024/01/14 10:06:27;;;;;;;1.70;1.40;;;;;;;12.75;47.02;96457.75;105419;1256;74610;-40
2024/01/14 10:08:54;;;;;;;1.40;1.30;;;;;;;12.75;46.99;96456.06;105685;1258;66177;-40
2024/01/14 10:11:24;;;;;;;2.10;1.50;;;;;;;12.76;47.04;96455.78;105582;1256;72658;-40
2024/01/14 10:13:51;;;;;;;1.60;1.20;;;;;;;12.76;47.04;96452.55;105666;1258;61232;-40
2024/01/14 10:16:18;;;;;;;1.60;1.50;;;;;;;12.75;47.00;96445.24;105419;1255;61242;-40
2024/01/14 10:19:06;;;;;;;1.50;1.20;;;;;;;12.77;47.00;96449.27;105456;1258;74433;-40
2024/01/14 10:21:32;;;;;;;1.60;1.30;;;;;;;12.76;47.06;96446.28;105680;1256;66322;-40
2024/01/14 10:24:03;;;;;;;1.40;1.10;;;;;;;12.77;46.98;96440.38;105406;1254;73726;-40
2024/01/14 10:26:30;;;;;;;1.60;1.50;;;;;;;12.77;47.08;96440.63;105335;1259;61248;-40
2024/01/14 10:29:02;;;;;;;1.70;1.40;;;;;;;12.78;47.15;96439.04;105616;1256;61426;-39
2024/01/14 10:31:30;;;;;;;1.30;1.20;;;;;;;12.79;46.96;96442.74;105274;1260;74594;-40
2024/01/14 10:34:02;;;;;;;1.60;1.30;;;;;;;12.79;47.03;96442.52;105406;1258;66079;-40
2024/01/14 10:36:32;;;;;;;1.50;1.40;;;;;;;12.80;46.97;96442.17;105425;1258;72259;-40
2024/01/14 10:38:59;;;;;;;1.20;1.10;;;;;;;12.81;47.00;96438.81;105544;1259;61349;-40
2024/01/14 10:41:26;;;;;;;1.40;1.30;;;;;;;12.82;46.99;96433.01;105488;1257;61340;-40
2024/01/14 10:43:53;;;;;;;1.50;1.30;;;;;;;12.82;47.04;96430.71;105505;1256;75523;-40
2024/01/14 10:46:19;;;;;;;1.50;1.20;;;;;;;12.83;46.95;96425.58;105490;1260;67224;-40
2024/01/14 10:48:54;;;;;;;2.30;1.50;;;;;;;12.84;47.05;96427.52;105661;1256;73207;-41
2024/01/14 10:51:20;;;;;;;1.30;1.20;;;;;;;12.85;47.06;96421.58;105447;1259;61236;-41
2024/01/14 10:53:48;;;;;;;1.40;1.30;;;;;;;12.86;46.94;96417.06;105349;1255;61411;-39
2024/01/14 10:56:16;;;;;;;1.70;1.40;;;;;;;12.86;46.95;96415.15;105334;1256;74372;-40
2024/01/14 10:58:42;;;;;;;1.90;1.20;;;;;;;12.86;46.93;96417.08;105474;1259;66353;-39
2024/01/14 11:01:11;;;;;;;1.70;1.30;;;;;;;12.87;47.03;96412.42;105394;1256;72606;-39
2024/01/14 11:03:38;;;;;;;1.30;1.20;;;;;;;12.88;46.95;96414.45;105415;1258;61257;-41
2024/01/14 11:06:05;;;;;;;1.40;1.20;;;;;;;12.89;47.00;96407.63;105447;1256;61315;-40
2024/01/14 11:08:32;;;;;;;1.40;1.30;;;;;;;12.89;46.91;96407.18;105456;1260;73444;-39
2024/01/14 11:10:59;;;;;;;1.40;1.30;;;;;;;12.90;46.93;96404.52;105369;1261;66389;-39
2024/01/14 11:14:07;;;;;;;1.60;1.40;;;;;;;12.90;46.93;96401.23;105215;1261;72401;-40
2024/01/14 11:16:48;;;;;;;1.60;1.50;;;;;;;12.91;46.98;96397.24;105278;1259;61582;-41
2024/01/14 11:19:16;;;;;;;1.40;1.30;;;;;;;12.91;46.92;96396.71;105680;1256;61229;-41
2024/01/14 11:22:12;;;;;;;1.30;1.10;;;;;;;12.92;46.87;96394.73;105677;1256;73661;-40
2024/01/14 11:24:59;;;;;;;1.20;1.10;;;;;;;12.91;46.98;96394.34;105312;1258;65312;-41